sensor_id;sensor_type;location;lat;lon;timestamp;pressure;altitude;pressure_sealevel;temperature;humidity
80149;BME280;69473;42.426;26.644;2023-07-13T00:01:47;99092.13;;;24.88;59.46
80149;BME280;69473;42.426;26.644;2023-07-13T00:04:16;99094.13;;;24.85;59.35
80149;BME280;69473;42.426;26.644;2023-07-13T00:06:43;99090.31;;;24.89;59.42
80149;BME280;69473;42.426;26.644;2023-07-13T00:09:15;99083.50;;;24.85;59.12
80149;BME280;69473;42.426;26.644;2023-07-13T00:11:43;99080.13;;;24.83;59.80
80149;BME280;69473;42.426;26.644;2023-07-13T00:14:09;99077.72;;;24.78;59.71
80149;BME280;69473;42.426;26.644;2023-07-13T00:16:37;99077.44;;;24.69;59.65
80149;BME280;69473;42.426;26.644;2023-07-13T00:19:04;99074.78;;;24.69;59.58
80149;BME280;69473;42.426;26.644;2023-07-13T00:21:31;99079.31;;;24.66;59.67
80149;BME280;69473;42.426;26.644;2023-07-13T00:23:56;99077.78;;;24.62;60.27
80149;BME280;69473;42.426;26.644;2023-07-13T00:26:22;99080.53;;;24.61;59.48
80149;BME280;69473;42.426;26.644;2023-07-13T00:28:48;99073.03;;;24.53;60.18
80149;BME280;69473;42.426;26.644;2023-07-13T00:31:14;99079.38;;;24.51;60.41
80149;BME280;69473;42.426;26.644;2023-07-13T00:33:41;99070.56;;;24.50;60.77
80149;BME280;69473;42.426;26.644;2023-07-13T00:36:08;99074.72;;;24.54;60.14
80149;BME280;69473;42.426;26.644;2023-07-13T00:38:35;99069.25;;;24.57;60.11
80149;BME280;69473;42.426;26.644;2023-07-13T00:41:01;99058.00;;;24.54;59.80
80149;BME280;69473;42.426;26.644;2023-07-13T00:43:28;99064.84;;;24.42;60.42
80149;BME280;69473;42.426;26.644;2023-07-13T00:48:27;99052.72;;;24.38;60.53
80149;BME280;69473;42.426;26.644;2023-07-13T00:50:58;99063.50;;;24.35;60.52
80149;BME280;69473;42.426;26.644;2023-07-13T00:53:26;99062.16;;;24.28;60.62
80149;BME280;69473;42.426;26.644;2023-07-13T00:55:55;99050.38;;;24.17;61.07
80149;BME280;69473;42.426;26.644;2023-07-13T00:58:23;99058.34;;;24.17;60.97
80149;BME280;69473;42.426;26.644;2023-07-13T01:00:52;99051.94;;;24.06;61.47
80149;BME280;69473;42.426;26.644;2023-07-13T01:03:19;99056.97;;;24.10;61.40
80149;BME280;69473;42.426;26.644;2023-07-13T01:05:48;99055.44;;;24.06;61.12
80149;BME280;69473;42.426;26.644;2023-07-13T01:08:15;99049.81;;;23.96;62.32
80149;BME280;69473;42.426;26.644;2023-07-13T01:10:51;99045.28;;;23.83;62.29
80149;BME280;69473;42.426;26.644;2023-07-13T01:13:16;99044.94;;;23.89;62.23
80149;BME280;69473;42.426;26.644;2023-07-13T01:15:44;99045.63;;;23.92;61.62
80149;BME280;69473;42.426;26.644;2023-07-13T01:18:20;99042.91;;;23.94;61.53
80149;BME280;69473;42.426;26.644;2023-07-13T01:20:56;99045.91;;;23.88;61.37
80149;BME280;69473;42.426;26.644;2023-07-13T01:23:23;99054.44;;;23.77;61.89
80149;BME280;69473;42.426;26.644;2023-07-13T01:25:49;99053.81;;;23.56;62.36
80149;BME280;69473;42.426;26.644;2023-07-13T01:28:15;99052.44;;;23.65;62.51
80149;BME280;69473;42.426;26.644;2023-07-13T01:30:44;99046.38;;;23.63;62.45
80149;BME280;69473;42.426;26.644;2023-07-13T01:33:16;99050.38;;;23.54;62.83
80149;BME280;69473;42.426;26.644;2023-07-13T01:35:43;99044.25;;;23.54;62.84
80149;BME280;69473;42.426;26.644;2023-07-13T01:38:10;99039.81;;;23.54;62.70
80149;BME280;69473;42.426;26.644;2023-07-13T01:40:37;99039.22;;;23.49;62.71
80149;BME280;69473;42.426;26.644;2023-07-13T01:43:04;99039.97;;;23.51;62.87
80149;BME280;69473;42.426;26.644;2023-07-13T01:45:30;99039.81;;;23.54;62.70
80149;BME280;69473;42.426;26.644;2023-07-13T01:47:56;99044.94;;;23.57;62.84
80149;BME280;69473;42.426;26.644;2023-07-13T01:50:21;99039.97;;;23.51;62.99
80149;BME280;69473;42.426;26.644;2023-07-13T01:52:47;99031.13;;;23.52;62.58
80149;BME280;69473;42.426;26.644;2023-07-13T01:55:12;99041.09;;;23.47;62.79
80149;BME280;69473;42.426;26.644;2023-07-13T01:57:39;99035.81;;;23.47;62.96
80149;BME280;69473;42.426;26.644;2023-07-13T02:00:06;99040.56;;;23.40;63.12
80149;BME280;69473;42.426;26.644;2023-07-13T02:02:32;99037.25;;;23.37;63.17
80149;BME280;69473;42.426;26.644;2023-07-13T02:04:58;99038.78;;;23.41;62.96
80149;BME280;69473;42.426;26.644;2023-07-13T02:07:23;99042.19;;;23.43;62.67
80149;BME280;69473;42.426;26.644;2023-07-13T02:09:49;99042.88;;;23.31;63.43
80149;BME280;69473;42.426;26.644;2023-07-13T02:12:15;99044.72;;;23.28;63.34
80149;BME280;69473;42.426;26.644;2023-07-13T02:14:40;99041.81;;;23.17;63.42
80149;BME280;69473;42.426;26.644;2023-07-13T02:17:06;99039.31;;;23.14;63.57
80149;BME280;69473;42.426;26.644;2023-07-13T02:19:32;99047.09;;;23.17;63.33
80149;BME280;69473;42.426;26.644;2023-07-13T02:21:57;99044.44;;;23.17;63.78
80149;BME280;69473;42.426;26.644;2023-07-13T02:24:23;99040.25;;;23.13;63.71
80149;BME280;69473;42.426;26.644;2023-07-13T02:26:49;99032.97;;;23.18;63.78
80149;BME280;69473;42.426;26.644;2023-07-13T02:29:14;99038.41;;;23.15;63.63
80149;BME280;69473;42.426;26.644;2023-07-13T02:31:40;99032.78;;;23.21;63.37
80149;BME280;69473;42.426;26.644;2023-07-13T02:34:05;99036.50;;;23.17;63.57
80149;BME280;69473;42.426;26.644;2023-07-13T02:36:31;99037.63;;;23.13;63.44
80149;BME280;69473;42.426;26.644;2023-07-13T02:39:01;99037.63;;;23.13;63.38
80149;BME280;69473;42.426;26.644;2023-07-13T02:41:29;99044.94;;;23.08;63.89
80149;BME280;69473;42.426;26.644;2023-07-13T02:43:54;99047.72;;;23.05;63.86
80149;BME280;69473;42.426;26.644;2023-07-13T02:46:29;99043.56;;;22.83;64.55
80149;BME280;69473;42.426;26.644;2023-07-13T02:48:54;99041.84;;;22.82;64.63
80149;BME280;69473;42.426;26.644;2023-07-13T02:51:20;99041.53;;;22.89;64.56
80149;BME280;69473;42.426;26.644;2023-07-13T02:53:45;99036.72;;;22.79;65.00
80149;BME280;69473;42.426;26.644;2023-07-13T02:56:12;99036.25;;;22.89;64.83
80149;BME280;69473;42.426;26.644;2023-07-13T02:58:38;99044.81;;;22.94;64.17
80149;BME280;69473;42.426;26.644;2023-07-13T03:01:12;99033.94;;;23.00;63.98
80149;BME280;69473;42.426;26.644;2023-07-13T03:03:38;99040.75;;;23.04;64.05
80149;BME280;69473;42.426;26.644;2023-07-13T03:06:05;99035.94;;;22.95;64.13
80149;BME280;69473;42.426;26.644;2023-07-13T03:08:31;99039.38;;;22.97;64.50
80149;BME280;69473;42.426;26.644;2023-07-13T03:11:06;99032.94;;;23.02;63.98
80149;BME280;69473;42.426;26.644;2023-07-13T03:13:32;99026.59;;;23.05;63.99
80149;BME280;69473;42.426;26.644;2023-07-13T03:23:03;99034.38;;;22.91;64.83
80149;BME280;69473;42.426;26.644;2023-07-13T03:25:29;99037.78;;;22.93;65.20
80149;BME280;69473;42.426;26.644;2023-07-13T03:27:54;99042.78;;;22.99;64.85
80149;BME280;69473;42.426;26.644;2023-07-13T03:30:20;99047.88;;;23.19;64.05
80149;BME280;69473;42.426;26.644;2023-07-13T03:32:45;99051.72;;;23.29;64.34
80149;BME280;69473;42.426;26.644;2023-07-13T03:35:11;99056.50;;;23.39;64.41
80149;BME280;69473;42.426;26.644;2023-07-13T03:37:36;99050.38;;;23.54;63.59
80149;BME280;69473;42.426;26.644;2023-07-13T03:40:08;99051.75;;;23.61;63.66
80149;BME280;69473;42.426;26.644;2023-07-13T03:42:35;99055.28;;;23.78;63.60
80149;BME280;69473;42.426;26.644;2023-07-13T03:45:00;99062.38;;;23.93;63.09
80149;BME280;69473;42.426;26.644;2023-07-13T03:47:26;99073.97;;;24.06;63.43
80149;BME280;69473;42.426;26.644;2023-07-13T03:49:51;99068.03;;;24.17;62.70
80149;BME280;69473;42.426;26.644;2023-07-13T03:52:17;99072.38;;;24.34;62.39
80149;BME280;69473;42.426;26.644;2023-07-13T03:54:42;99069.97;;;24.45;62.30
80149;BME280;69473;42.426;26.644;2023-07-13T03:57:08;99067.56;;;24.56;61.51
80149;BME280;69473;42.426;26.644;2023-07-13T03:59:34;99063.22;;;24.55;61.33
80149;BME280;69473;42.426;26.644;2023-07-13T04:02:01;99072.13;;;24.69;61.79
80149;BME280;69473;42.426;26.644;2023-07-13T04:04:26;99069.53;;;24.83;61.36
80149;BME280;69473;42.426;26.644;2023-07-13T04:06:52;99069.72;;;24.80;61.48
80149;BME280;69473;42.426;26.644;2023-07-13T04:09:18;99060.44;;;25.01;60.55
80149;BME280;69473;42.426;26.644;2023-07-13T04:11:44;99071.31;;;24.97;61.24
80149;BME280;69473;42.426;26.644;2023-07-13T04:14:10;99064.97;;;24.85;61.22
80149;BME280;69473;42.426;26.644;2023-07-13T04:16:35;99065.97;;;25.13;59.86
80149;BME280;69473;42.426;26.644;2023-07-13T04:19:01;99067.09;;;25.23;60.23
80149;BME280;69473;42.426;26.644;2023-07-13T04:21:29;99068.03;;;24.93;59.67
80149;BME280;69473;42.426;26.644;2023-07-13T04:23:55;99075.63;;;25.28;59.50
80149;BME280;69473;42.426;26.644;2023-07-13T04:26:21;99071.06;;;25.44;59.37
80149;BME280;69473;42.426;26.644;2023-07-13T04:28:48;99073.38;;;25.36;59.82
80149;BME280;69473;42.426;26.644;2023-07-13T04:31:14;99078.84;;;25.47;59.58
80149;BME280;69473;42.426;26.644;2023-07-13T04:33:39;99069.72;;;25.66;58.95
80149;BME280;69473;42.426;26.644;2023-07-13T04:36:05;99075.63;;;25.28;59.04
80149;BME280;69473;42.426;26.644;2023-07-13T04:38:32;99087.84;;;25.45;58.69
80149;BME280;69473;42.426;26.644;2023-07-13T04:41:04;99083.22;;;25.48;58.57
80149;BME280;69473;42.426;26.644;2023-07-13T04:43:31;99076.75;;;25.38;58.21
80149;BME280;69473;42.426;26.644;2023-07-13T04:45:57;99087.00;;;25.44;57.87
80149;BME280;69473;42.426;26.644;2023-07-13T04:48:27;99083.69;;;25.55;58.17
80149;BME280;69473;42.426;26.644;2023-07-13T04:50:58;99085.72;;;26.20;56.70
80149;BME280;69473;42.426;26.644;2023-07-13T04:53:24;99092.59;;;26.37;56.12
80149;BME280;69473;42.426;26.644;2023-07-13T04:55:50;99091.41;;;26.68;55.43
80149;BME280;69473;42.426;26.644;2023-07-13T04:58:16;99091.13;;;26.45;55.00
80149;BME280;69473;42.426;26.644;2023-07-13T05:00:41;99091.38;;;26.01;56.26
80149;BME280;69473;42.426;26.644;2023-07-13T05:03:07;99088.13;;;26.37;55.60
80149;BME280;69473;42.426;26.644;2023-07-13T05:05:33;99100.91;;;26.45;55.24
80149;BME280;69473;42.426;26.644;2023-07-13T05:07:59;99098.63;;;26.66;55.10
80149;BME280;69473;42.426;26.644;2023-07-13T05:10:25;99097.81;;;26.78;55.28
80149;BME280;69473;42.426;26.644;2023-07-13T05:12:51;99097.38;;;26.71;54.72
80149;BME280;69473;42.426;26.644;2023-07-13T05:15:18;99097.81;;;26.78;54.96
80149;BME280;69473;42.426;26.644;2023-07-13T05:17:49;99101.44;;;26.23;55.31
80149;BME280;69473;42.426;26.644;2023-07-13T05:20:17;99098.50;;;26.55;55.30
80149;BME280;69473;42.426;26.644;2023-07-13T05:22:43;99094.50;;;26.47;55.87
80149;BME280;69473;42.426;26.644;2023-07-13T05:25:09;99107.13;;;26.58;55.55
80149;BME280;69473;42.426;26.644;2023-07-13T05:27:36;99110.16;;;26.92;54.08
80149;BME280;69473;42.426;26.644;2023-07-13T05:30:03;99102.28;;;26.90;54.17
80149;BME280;69473;42.426;26.644;2023-07-13T05:32:28;99111.44;;;26.86;54.68
80149;BME280;69473;42.426;26.644;2023-07-13T05:34:54;99109.78;;;27.36;53.19
80149;BME280;69473;42.426;26.644;2023-07-13T05:37:20;99101.16;;;27.46;52.68
80149;BME280;69473;42.426;26.644;2023-07-13T05:39:45;99110.81;;;27.59;51.77
80149;BME280;69473;42.426;26.644;2023-07-13T05:42:11;99111.91;;;27.94;51.83
80149;BME280;69473;42.426;26.644;2023-07-13T05:44:36;99108.31;;;27.32;52.12
80149;BME280;69473;42.426;26.644;2023-07-13T05:47:02;99108.22;;;27.83;51.39
80149;BME280;69473;42.426;26.644;2023-07-13T05:49:27;99109.94;;;27.84;51.21
80149;BME280;69473;42.426;26.644;2023-07-13T05:51:54;99107.53;;;28.29;50.32
80149;BME280;69473;42.426;26.644;2023-07-13T05:54:20;99115.66;;;28.52;49.39
80149;BME280;69473;42.426;26.644;2023-07-13T05:56:45;99107.59;;;28.41;50.01
80149;BME280;69473;42.426;26.644;2023-07-13T05:59:12;99103.53;;;27.87;50.32
80149;BME280;69473;42.426;26.644;2023-07-13T06:01:37;99106.91;;;28.26;50.69
80149;BME280;69473;42.426;26.644;2023-07-13T06:04:03;99105.84;;;28.99;47.91
80149;BME280;69473;42.426;26.644;2023-07-13T06:06:29;99101.81;;;29.17;48.23
80149;BME280;69473;42.426;26.644;2023-07-13T06:08:54;99102.28;;;29.34;47.64
80149;BME280;69473;42.426;26.644;2023-07-13T06:11:23;99100.50;;;28.88;48.16
80149;BME280;69473;42.426;26.644;2023-07-13T06:13:49;99099.63;;;29.45;47.40
80149;BME280;69473;42.426;26.644;2023-07-13T06:16:16;99094.75;;;30.06;45.21
80149;BME280;69473;42.426;26.644;2023-07-13T06:18:42;99093.09;;;30.37;44.79
80149;BME280;69473;42.426;26.644;2023-07-13T06:21:09;99092.78;;;30.08;46.14
80149;BME280;69473;42.426;26.644;2023-07-13T06:23:36;99096.88;;;30.24;45.50
80149;BME280;69473;42.426;26.644;2023-07-13T06:26:02;99094.69;;;30.29;44.83
80149;BME280;69473;42.426;26.644;2023-07-13T06:28:29;99087.50;;;31.95;41.53
80149;BME280;69473;42.426;26.644;2023-07-13T06:30:55;99090.09;;;32.16;40.40
80149;BME280;69473;42.426;26.644;2023-07-13T06:33:21;99092.09;;;32.34;40.46
80149;BME280;69473;42.426;26.644;2023-07-13T06:35:46;99085.41;;;32.09;41.49
80149;BME280;69473;42.426;26.644;2023-07-13T06:38:12;99080.47;;;33.11;39.91
80149;BME280;69473;42.426;26.644;2023-07-13T06:40:37;99080.00;;;33.25;38.79
80149;BME280;69473;42.426;26.644;2023-07-13T06:43:03;99077.75;;;34.13;37.39
80149;BME280;69473;42.426;26.644;2023-07-13T06:45:28;99085.03;;;34.75;36.65
80149;BME280;69473;42.426;26.644;2023-07-13T06:47:54;99071.97;;;34.26;37.21
80149;BME280;69473;42.426;26.644;2023-07-13T06:50:20;99072.91;;;35.14;35.68
80149;BME280;69473;42.426;26.644;2023-07-13T06:52:45;99077.06;;;35.43;35.23
80149;BME280;69473;42.426;26.644;2023-07-13T06:55:11;99079.06;;;35.41;34.91
80149;BME280;69473;42.426;26.644;2023-07-13T06:57:37;99085.66;;;36.40;33.66
80149;BME280;69473;42.426;26.644;2023-07-13T07:00:03;99083.75;;;36.16;33.72
80149;BME280;69473;42.426;26.644;2023-07-13T07:02:28;99081.75;;;36.26;34.28
80149;BME280;69473;42.426;26.644;2023-07-13T07:04:54;99079.44;;;37.05;32.34
80149;BME280;69473;42.426;26.644;2023-07-13T07:07:20;99077.31;;;37.31;32.09
80149;BME280;69473;42.426;26.644;2023-07-13T07:09:48;99077.09;;;36.61;32.80
80149;BME280;69473;42.426;26.644;2023-07-13T07:12:14;99078.06;;;37.09;32.80
80149;BME280;69473;42.426;26.644;2023-07-13T07:14:39;99069.97;;;36.92;31.75
80149;BME280;69473;42.426;26.644;2023-07-13T07:17:05;99068.94;;;36.44;33.01
80149;BME280;69473;42.426;26.644;2023-07-13T07:19:30;99068.63;;;36.72;32.98
80149;BME280;69473;42.426;26.644;2023-07-13T07:21:56;99065.72;;;37.70;30.73
80149;BME280;69473;42.426;26.644;2023-07-13T07:24:22;99062.25;;;37.93;31.20
80149;BME280;69473;42.426;26.644;2023-07-13T07:26:47;99059.09;;;37.25;31.61
80149;BME280;69473;42.426;26.644;2023-07-13T07:29:13;99073.50;;;37.17;31.85
80149;BME280;69473;42.426;26.644;2023-07-13T07:31:38;99064.53;;;38.04;30.97
80149;BME280;69473;42.426;26.644;2023-07-13T07:34:04;99063.78;;;37.48;31.79
80149;BME280;69473;42.426;26.644;2023-07-13T07:36:30;99066.81;;;34.86;36.20
80149;BME280;69473;42.426;26.644;2023-07-13T07:38:55;99069.44;;;33.14;39.20
80149;BME280;69473;42.426;26.644;2023-07-13T07:41:21;99063.47;;;33.20;39.07
80149;BME280;69473;42.426;26.644;2023-07-13T07:43:46;99076.38;;;33.54;40.29
80149;BME280;69473;42.426;26.644;2023-07-13T07:46:12;99079.16;;;33.62;39.03
80149;BME280;69473;42.426;26.644;2023-07-13T07:48:38;99076.38;;;33.54;39.08
80149;BME280;69473;42.426;26.644;2023-07-13T07:51:03;99069.59;;;33.50;39.14
80149;BME280;69473;42.426;26.644;2023-07-13T07:53:29;99070.06;;;33.35;39.56
80149;BME280;69473;42.426;26.644;2023-07-13T07:55:54;99066.97;;;32.64;39.38
80149;BME280;69473;42.426;26.644;2023-07-13T07:58:20;99070.06;;;32.69;40.33
80149;BME280;69473;42.426;26.644;2023-07-13T08:00:45;99078.81;;;32.81;39.96
80149;BME280;69473;42.426;26.644;2023-07-13T08:03:11;99078.78;;;32.91;39.68
80149;BME280;69473;42.426;26.644;2023-07-13T08:05:36;99077.38;;;32.86;39.63
80149;BME280;69473;42.426;26.644;2023-07-13T08:08:03;99073.97;;;33.04;39.11
80149;BME280;69473;42.426;26.644;2023-07-13T08:10:29;99070.16;;;33.44;40.01
80149;BME280;69473;42.426;26.644;2023-07-13T08:12:54;99083.44;;;33.08;39.13
80149;BME280;69473;42.426;26.644;2023-07-13T08:15:20;99071.72;;;33.09;39.26
80149;BME280;69473;42.426;26.644;2023-07-13T08:17:47;99070.75;;;33.38;39.31
80149;BME280;69473;42.426;26.644;2023-07-13T08:20:13;99068.03;;;33.10;38.82
80149;BME280;69473;42.426;26.644;2023-07-13T08:22:39;99068.16;;;33.46;38.43
80149;BME280;69473;42.426;26.644;2023-07-13T08:25:05;99063.81;;;33.72;38.57
80149;BME280;69473;42.426;26.644;2023-07-13T08:27:32;99065.91;;;34.06;38.18
80149;BME280;69473;42.426;26.644;2023-07-13T08:29:58;99059.03;;;33.39;38.70
80149;BME280;69473;42.426;26.644;2023-07-13T08:32:24;99060.94;;;33.84;38.78
80149;BME280;69473;42.426;26.644;2023-07-13T08:34:50;99052.53;;;34.14;37.73
80149;BME280;69473;42.426;26.644;2023-07-13T08:37:17;99063.03;;;33.62;38.95
80149;BME280;69473;42.426;26.644;2023-07-13T08:39:43;99055.16;;;34.06;38.11
80149;BME280;69473;42.426;26.644;2023-07-13T08:45:17;99053.50;;;33.95;37.80
80149;BME280;69473;42.426;26.644;2023-07-13T08:48:03;99052.53;;;34.14;37.64
80149;BME280;69473;42.426;26.644;2023-07-13T08:50:35;99045.16;;;34.52;37.39
80149;BME280;69473;42.426;26.644;2023-07-13T08:53:09;99041.59;;;34.69;37.13
80149;BME280;69473;42.426;26.644;2023-07-13T08:55:37;99041.38;;;34.89;36.24
80149;BME280;69473;42.426;26.644;2023-07-13T08:58:15;99038.75;;;34.97;36.68
80149;BME280;69473;42.426;26.644;2023-07-13T09:01:06;99037.91;;;34.97;37.20
80149;BME280;69473;42.426;26.644;2023-07-13T09:04:09;99034.53;;;34.68;36.87
80149;BME280;69473;42.426;26.644;2023-07-13T09:12:27;99036.22;;;35.22;35.85
80149;BME280;69473;42.426;26.644;2023-07-13T09:14:59;99041.88;;;35.36;35.14
80149;BME280;69473;42.426;26.644;2023-07-13T09:17:39;99044.06;;;35.41;34.16
80149;BME280;69473;42.426;26.644;2023-07-13T09:23:12;99033.31;;;35.49;36.20
80149;BME280;69473;42.426;26.644;2023-07-13T09:25:42;99041.66;;;35.30;35.04
80149;BME280;69473;42.426;26.644;2023-07-13T09:28:23;99039.44;;;35.59;35.31
80149;BME280;69473;42.426;26.644;2023-07-13T09:31:04;99028.41;;;35.36;35.68
80149;BME280;69473;42.426;26.644;2023-07-13T09:33:31;99020.44;;;35.61;35.93
80149;BME280;69473;42.426;26.644;2023-07-13T09:35:58;99021.81;;;35.39;35.01
80149;BME280;69473;42.426;26.644;2023-07-13T09:38:27;99019.44;;;35.28;34.03
80149;BME280;69473;42.426;26.644;2023-07-13T09:44:18;99016.38;;;35.23;34.24
80149;BME280;69473;42.426;26.644;2023-07-13T09:46:55;99020.72;;;35.15;35.17
80149;BME280;69473;42.426;26.644;2023-07-13T09:49:34;99013.09;;;35.45;35.12
80149;BME280;69473;42.426;26.644;2023-07-13T09:52:07;99010.91;;;35.06;34.14
80149;BME280;69473;42.426;26.644;2023-07-13T09:54:37;99005.09;;;34.93;33.71
80149;BME280;69473;42.426;26.644;2023-07-13T09:57:12;98992.81;;;35.25;32.85
80149;BME280;69473;42.426;26.644;2023-07-13T09:59:45;98998.00;;;35.60;34.04
80149;BME280;69473;42.426;26.644;2023-07-13T10:02:33;98996.75;;;35.97;32.92
80149;BME280;69473;42.426;26.644;2023-07-13T10:05:05;98996.63;;;36.23;31.95
80149;BME280;69473;42.426;26.644;2023-07-13T10:07:32;98990.91;;;36.18;32.57
80149;BME280;69473;42.426;26.644;2023-07-13T10:10:00;98982.78;;;36.10;32.36
80149;BME280;69473;42.426;26.644;2023-07-13T10:12:28;98973.31;;;35.39;31.09
80149;BME280;69473;42.426;26.644;2023-07-13T10:14:56;98965.28;;;35.47;31.42
80149;BME280;69473;42.426;26.644;2023-07-13T10:17:30;98972.78;;;35.78;30.95
80149;BME280;69473;42.426;26.644;2023-07-13T10:20:02;98962.31;;;35.58;30.48
80149;BME280;69473;42.426;26.644;2023-07-13T10:25:15;98957.66;;;36.26;31.33
80149;BME280;69473;42.426;26.644;2023-07-13T10:27:42;98953.97;;;36.19;29.72
80149;BME280;69473;42.426;26.644;2023-07-13T10:30:17;98953.28;;;36.17;28.97
80149;BME280;69473;42.426;26.644;2023-07-13T10:32:46;98948.91;;;36.32;27.88
80149;BME280;69473;42.426;26.644;2023-07-13T10:35:15;98944.16;;;36.01;29.80
80149;BME280;69473;42.426;26.644;2023-07-13T10:37:49;98943.47;;;35.91;29.58
80149;BME280;69473;42.426;26.644;2023-07-13T10:40:26;98944.16;;;35.77;29.21
80149;BME280;69473;42.426;26.644;2023-07-13T10:42:56;98936.78;;;35.95;29.88
80149;BME280;69473;42.426;26.644;2023-07-13T10:45:33;98934.75;;;36.14;28.91
80149;BME280;69473;42.426;26.644;2023-07-13T10:48:01;98927.66;;;36.45;28.35
80149;BME280;69473;42.426;26.644;2023-07-13T10:50:29;98924.28;;;36.43;29.47
80149;BME280;69473;42.426;26.644;2023-07-13T10:53:20;98917.13;;;36.75;28.96
80149;BME280;69473;42.426;26.644;2023-07-13T10:58:23;98912.63;;;37.15;29.48
80149;BME280;69473;42.426;26.644;2023-07-13T11:03:34;98922.53;;;36.75;26.77
80149;BME280;69473;42.426;26.644;2023-07-13T11:18:51;98914.50;;;37.46;27.13
80149;BME280;69473;42.426;26.644;2023-07-13T11:21:22;98922.41;;;37.47;27.24
80149;BME280;69473;42.426;26.644;2023-07-13T11:24:14;98923.69;;;37.28;26.66
80149;BME280;69473;42.426;26.644;2023-07-13T11:32:00;98915.97;;;37.79;27.38
80149;BME280;69473;42.426;26.644;2023-07-13T11:36:57;98915.19;;;37.39;27.57
80149;BME280;69473;42.426;26.644;2023-07-13T11:39:36;98916.69;;;37.73;27.35
80149;BME280;69473;42.426;26.644;2023-07-13T11:42:07;98884.28;;;37.65;27.25
80149;BME280;69473;42.426;26.644;2023-07-13T11:44:35;98909.28;;;37.67;26.67
80149;BME280;69473;42.426;26.644;2023-07-13T11:47:10;98906.41;;;37.46;27.07
80149;BME280;69473;42.426;26.644;2023-07-13T11:49:44;98906.06;;;37.40;26.37
80149;BME280;69473;42.426;26.644;2023-07-13T11:52:17;98902.91;;;37.29;27.02
80149;BME280;69473;42.426;26.644;2023-07-13T11:54:52;98895.34;;;37.24;26.56
80149;BME280;69473;42.426;26.644;2023-07-13T11:59:58;98895.16;;;37.80;28.04
80149;BME280;69473;42.426;26.644;2023-07-13T12:02:35;98892.63;;;37.78;26.78
80149;BME280;69473;42.426;26.644;2023-07-13T12:05:04;98899.09;;;37.23;26.77
80149;BME280;69473;42.426;26.644;2023-07-13T12:07:32;98895.50;;;37.22;28.96
80149;BME280;69473;42.426;26.644;2023-07-13T12:10:25;98900.41;;;37.27;27.25
80149;BME280;69473;42.426;26.644;2023-07-13T12:13:02;98894.06;;;37.66;28.50
80149;BME280;69473;42.426;26.644;2023-07-13T12:15:43;98894.06;;;37.66;26.38
80149;BME280;69473;42.426;26.644;2023-07-13T12:18:16;98900.56;;;37.57;25.94
80149;BME280;69473;42.426;26.644;2023-07-13T12:20:45;98888.47;;;37.90;26.03
80149;BME280;69473;42.426;26.644;2023-07-13T12:23:32;98890.53;;;37.88;26.29
80149;BME280;69473;42.426;26.644;2023-07-13T12:26:01;98883.97;;;37.60;24.81
80149;BME280;69473;42.426;26.644;2023-07-13T12:28:38;98882.44;;;37.88;26.49
80149;BME280;69473;42.426;26.644;2023-07-13T12:31:31;98879.88;;;38.10;25.15
80149;BME280;69473;42.426;26.644;2023-07-13T12:34:02;98866.94;;;38.20;25.79
80149;BME280;69473;42.426;26.644;2023-07-13T12:36:34;98866.66;;;38.15;25.59
80149;BME280;69473;42.426;26.644;2023-07-13T12:39:17;98862.84;;;38.24;25.61
80149;BME280;69473;42.426;26.644;2023-07-13T12:41:45;98854.72;;;38.24;26.37
80149;BME280;69473;42.426;26.644;2023-07-13T12:44:13;98863.88;;;38.23;25.31
80149;BME280;69473;42.426;26.644;2023-07-13T12:46:52;98849.63;;;37.92;24.45
80149;BME280;69473;42.426;26.644;2023-07-13T12:49:24;98846.41;;;37.73;25.37
80149;BME280;69473;42.426;26.644;2023-07-13T12:51:50;98835.31;;;37.83;25.06
80149;BME280;69473;42.426;26.644;2023-07-13T12:54:19;98827.97;;;37.92;25.14
80149;BME280;69473;42.426;26.644;2023-07-13T12:56:49;98830.41;;;37.63;24.80
80149;BME280;69473;42.426;26.644;2023-07-13T12:59:21;98815.19;;;37.85;24.46
80149;BME280;69473;42.426;26.644;2023-07-13T13:01:49;98815.84;;;37.87;25.31
80149;BME280;69473;42.426;26.644;2023-07-13T13:04:15;98817.91;;;37.85;25.04
80149;BME280;69473;42.426;26.644;2023-07-13T13:06:42;98815.06;;;37.64;25.46
80149;BME280;69473;42.426;26.644;2023-07-13T13:09:16;98817.66;;;37.72;25.33
80149;BME280;69473;42.426;26.644;2023-07-13T13:11:45;98806.00;;;37.95;24.19
80149;BME280;69473;42.426;26.644;2023-07-13T13:14:10;98805.16;;;38.09;24.75
80149;BME280;69473;42.426;26.644;2023-07-13T13:16:45;98800.88;;;38.00;24.17
80149;BME280;69473;42.426;26.644;2023-07-13T13:19:27;98800.72;;;37.78;24.79
80149;BME280;69473;42.426;26.644;2023-07-13T13:21:55;98798.69;;;37.34;25.26
80149;BME280;69473;42.426;26.644;2023-07-13T13:24:24;98799.19;;;37.61;26.19
80149;BME280;69473;42.426;26.644;2023-07-13T13:26:51;98795.19;;;37.95;26.17
80149;BME280;69473;42.426;26.644;2023-07-13T13:29:21;98781.63;;;37.80;25.20
80149;BME280;69473;42.426;26.644;2023-07-13T13:31:47;98794.44;;;38.01;26.11
80149;BME280;69473;42.426;26.644;2023-07-13T13:34:16;98790.72;;;38.02;26.16
80149;BME280;69473;42.426;26.644;2023-07-13T13:36:43;98791.34;;;37.66;24.63
80149;BME280;69473;42.426;26.644;2023-07-13T13:39:33;98791.34;;;37.66;24.91
80149;BME280;69473;42.426;26.644;2023-07-13T13:42:00;98798.31;;;37.83;24.56
80149;BME280;69473;42.426;26.644;2023-07-13T13:44:27;98789.31;;;37.68;24.40
80149;BME280;69473;42.426;26.644;2023-07-13T13:46:55;98787.75;;;37.74;24.31
80149;BME280;69473;42.426;26.644;2023-07-13T13:49:24;98782.72;;;37.71;24.91
80149;BME280;69473;42.426;26.644;2023-07-13T13:51:51;98776.84;;;37.67;24.38
80149;BME280;69473;42.426;26.644;2023-07-13T13:54:19;98761.84;;;37.79;23.73